createdAt,value
2023-01-22T00:00:55.344Z,99948.59
2023-01-22T00:03:56.996Z,99948.25
2023-01-22T00:06:58.687Z,99933.59
2023-01-22T00:10:00.428Z,99922.69
2023-01-22T00:13:02.112Z,99938.00
2023-01-22T00:16:04.219Z,99941.91
2023-01-22T00:19:05.949Z,99942.16
2023-01-22T00:22:07.563Z,99927.84
2023-01-22T00:25:11.399Z,99917.47
2023-01-22T00:28:13.241Z,99916.69
2023-01-22T00:31:16.382Z,99922.09
2023-01-22T00:34:18.074Z,99927.75
2023-01-22T00:37:20.363Z,99921.06
2023-01-22T00:40:22.044Z,99922.44
2023-01-22T00:43:23.798Z,99925.19
2023-01-22T00:46:25.469Z,99924.19
2023-01-22T00:49:27.190Z,99902.84
2023-01-22T00:52:28.816Z,99916.22
2023-01-22T00:55:31.045Z,99918.44
2023-01-22T00:58:32.746Z,99915.66
2023-01-22T01:01:34.500Z,99919.22
2023-01-22T01:04:36.249Z,99917.59
2023-01-22T01:07:37.848Z,99915.06
2023-01-22T01:10:40.243Z,99905.16
2023-01-22T01:13:43.129Z,99909.53
2023-01-22T01:16:44.884Z,99907.91
2023-01-22T01:19:46.458Z,99907.47
2023-01-22T01:22:48.134Z,99894.06
2023-01-22T01:25:49.756Z,99910.47
2023-01-22T01:28:55.449Z,99905.84
2023-01-22T01:31:58.088Z,99904.22
2023-01-22T01:34:59.843Z,99903.06
2023-01-22T01:38:01.656Z,99912.63
2023-01-22T01:41:04.072Z,99904.44
2023-01-22T01:44:11.598Z,99900.44
2023-01-22T01:47:31.028Z,99899.38
2023-01-22T01:50:33.834Z,99901.25
2023-01-22T01:53:36.838Z,99895.81
2023-01-22T01:56:48.112Z,99890.75
2023-01-22T01:59:51.673Z,99886.50
2023-01-22T02:02:53.888Z,99899.28
2023-01-22T02:05:55.622Z,99886.50
2023-01-22T02:09:02.689Z,99890.28
2023-01-22T02:12:04.766Z,99895.94
2023-01-22T02:15:08.462Z,99892.25
2023-01-22T02:18:10.127Z,99886.25
2023-01-22T02:21:30.887Z,99884.88
2023-01-22T02:24:33.908Z,99885.81
2023-01-22T02:27:36.843Z,99873.69
2023-01-22T02:30:40.444Z,99868.53
2023-01-22T02:33:42.092Z,99887.06
2023-01-22T02:36:44.159Z,99874.84
2023-01-22T02:39:45.841Z,99873.81
2023-01-22T02:42:47.528Z,99872.31
2023-01-22T02:45:49.412Z,99878.66
2023-01-22T02:48:51.262Z,99869.44
2023-01-22T02:51:53.165Z,99865.97
2023-01-22T02:54:56.446Z,99870.00
2023-01-22T02:57:58.228Z,99866.19
2023-01-22T03:01:19.072Z,99874.84
2023-01-22T03:04:22.219Z,99862.63
2023-01-22T03:07:23.900Z,99867.25
2023-01-22T03:10:26.131Z,99863.00
2023-01-22T03:13:46.672Z,99867.47
2023-01-22T03:17:07.435Z,99865.41
2023-01-22T03:20:29.411Z,99846.38
2023-01-22T03:23:32.855Z,99851.00
2023-01-22T03:26:35.925Z,99862.41
2023-01-22T03:29:38.546Z,99858.69
2023-01-22T03:32:42.045Z,99857.09
2023-01-22T03:35:44.832Z,99856.50
2023-01-22T03:38:51.269Z,99852.38
2023-01-22T03:41:56.517Z,99842.25
2023-01-22T03:44:59.839Z,99858.47
2023-01-22T03:48:02.712Z,99855.50
2023-01-22T03:51:12.893Z,99865.72
2023-01-22T03:54:16.505Z,99855.13
2023-01-22T03:57:18.308Z,99853.06
2023-01-22T04:00:20.925Z,99859.84
2023-01-22T04:03:27.840Z,99856.97
2023-01-22T04:06:30.674Z,99848.44
2023-01-22T04:09:33.324Z,99849.00
2023-01-22T04:12:34.939Z,99855.59
2023-01-22T04:15:36.643Z,99855.50
2023-01-22T04:18:47.495Z,99865.13
2023-01-22T04:22:18.424Z,99856.97
2023-01-22T04:25:23.097Z,99854.44
2023-01-22T04:28:25.211Z,99871.38
2023-01-22T04:31:29.388Z,99853.06
2023-01-22T04:34:56.661Z,99854.44
2023-01-22T04:38:15.000Z,99856.03
2023-01-22T04:41:16.886Z,99874.13
2023-01-22T04:44:18.575Z,99875.41
2023-01-22T04:47:20.246Z,99870.69
2023-01-22T04:50:25.890Z,99870.34
2023-01-22T04:53:27.877Z,99859.72
2023-01-22T04:56:30.259Z,99861.78
2023-01-22T04:59:31.932Z,99866.88
2023-01-22T05:02:34.050Z,99872.97
2023-01-22T05:05:35.850Z,99874.13
2023-01-22T05:08:37.642Z,99868.59
2023-01-22T05:11:39.464Z,99868.03
2023-01-22T05:14:41.834Z,99862.03
2023-01-22T05:17:44.449Z,99867.91
2023-01-22T05:20:46.231Z,99868.28
2023-01-22T05:23:48.740Z,99858.91
2023-01-22T05:26:51.731Z,99865.00
2023-01-22T05:30:00.908Z,99885.41
2023-01-22T05:33:15.323Z,99875.50
2023-01-22T05:36:17.062Z,99878.84
2023-01-22T05:39:19.125Z,99877.91
2023-01-22T05:42:21.583Z,99887.59
2023-01-22T05:45:25.083Z,99881.97
2023-01-22T05:48:52.401Z,99887.13
2023-01-22T05:51:59.541Z,99892.34
2023-01-22T05:55:01.992Z,99890.84
2023-01-22T05:58:10.943Z,99881.16
2023-01-22T06:01:12.973Z,99891.06
2023-01-22T06:04:19.274Z,99879.88
2023-01-22T06:07:21.053Z,99888.78
2023-01-22T06:10:22.751Z,99900.16
2023-01-22T06:13:24.413Z,99902.81
2023-01-22T06:16:29.900Z,99901.69
2023-01-22T06:19:44.822Z,99920.91
2023-01-22T06:22:51.036Z,99909.72
2023-01-22T06:25:53.532Z,99914.56
2023-01-22T06:28:55.485Z,99905.81
2023-01-22T06:31:57.733Z,99922.53
2023-01-22T06:34:59.412Z,99924.25
2023-01-22T06:38:01.239Z,99916.75
2023-01-22T06:41:06.469Z,99925.28
2023-01-22T06:44:08.600Z,99909.84
2023-01-22T06:47:10.538Z,99916.97
2023-01-22T06:50:13.598Z,99929.91
2023-01-22T06:53:15.719Z,99916.19
2023-01-22T06:56:17.365Z,99921.94
2023-01-22T06:59:19.123Z,99922.63
2023-01-22T07:02:21.358Z,99932.88
2023-01-22T07:05:23.550Z,99932.56
2023-01-22T07:08:26.659Z,99939.47
2023-01-22T07:11:28.432Z,99944.53
2023-01-22T07:14:36.773Z,99950.31
2023-01-22T07:17:39.249Z,99958.63
2023-01-22T07:20:44.377Z,99946.28
2023-01-22T07:23:46.140Z,99956.75
2023-01-22T07:26:48.589Z,99947.56
2023-01-22T07:29:50.224Z,99965.53
2023-01-22T07:32:51.845Z,99957.72
2023-01-22T07:35:57.593Z,99965.06
2023-01-22T07:38:59.205Z,99956.19
2023-01-22T07:42:01.461Z,99957.00
2023-01-22T07:45:05.768Z,99958.16
2023-01-22T07:48:10.767Z,99964.59
2023-01-22T07:51:12.765Z,99977.88
2023-01-22T07:54:15.818Z,99986.16
2023-01-22T07:57:19.249Z,99985.47
2023-01-22T08:00:21.315Z,99976.50
2023-01-22T08:03:23.022Z,99988.81
2023-01-22T08:06:24.651Z,99988.00
2023-01-22T08:09:26.281Z,99986.41
2023-01-22T08:12:28.542Z,99988.69
2023-01-22T08:15:31.459Z,99990.44
2023-01-22T08:18:33.183Z,99994.34
2023-01-22T08:21:34.820Z,99990.63
2023-01-22T08:24:36.510Z,99992.13
2023-01-22T08:27:38.355Z,100000.53
2023-01-22T08:30:46.082Z,99990.56
2023-01-22T08:33:48.445Z,99991.94
2023-01-22T08:36:50.157Z,100000.50
2023-01-22T08:39:51.910Z,99990.81
2023-01-22T08:42:54.854Z,99999.91
2023-01-22T08:45:56.667Z,100003.97
2023-01-22T08:48:58.464Z,100002.47
2023-01-22T08:52:00.036Z,99993.38
2023-01-22T08:55:01.643Z,100005.59
2023-01-22T08:58:03.333Z,100007.56
2023-01-22T09:01:05.149Z,100006.50
2023-01-22T09:04:08.609Z,100008.88
2023-01-22T09:07:10.876Z,100010.59
2023-01-22T09:10:12.934Z,100019.59
2023-01-22T09:13:14.554Z,100014.63
2023-01-22T09:16:16.260Z,100016.72
2023-01-22T09:19:17.980Z,100020.88
2023-01-22T09:22:20.369Z,100023.72
2023-01-22T09:25:22.121Z,100024.09
2023-01-22T09:28:23.709Z,100030.53
2023-01-22T09:31:25.291Z,100021.44
2023-01-22T09:34:27.071Z,100033.53
2023-01-22T09:37:28.654Z,100031.34
2023-01-22T09:40:32.572Z,100039.28
2023-01-22T09:43:45.798Z,100037.31
2023-01-22T09:46:53.082Z,100030.94
2023-01-22T09:50:04.830Z,100042.06
2023-01-22T09:53:12.018Z,100043.41
2023-01-22T09:56:22.129Z,100047.47
2023-01-22T09:59:27.941Z,100047.47
2023-01-22T10:02:37.459Z,100059.25
2023-01-22T10:05:44.318Z,100053.47
2023-01-22T10:09:05.181Z,100049.31
2023-01-22T10:12:13.657Z,100054.41
2023-01-22T10:15:20.398Z,100052.88
2023-01-22T10:18:31.217Z,100056.13
2023-01-22T10:21:38.711Z,100051.03
2023-01-22T10:24:40.380Z,100037.50
2023-01-22T10:27:44.556Z,100046.84
2023-01-22T10:30:48.450Z,100028.16
2023-01-22T10:33:57.600Z,100043.38
2023-01-22T10:37:11.015Z,100036.31
2023-01-22T10:40:31.434Z,100031.56
2023-01-22T10:43:38.763Z,100034.81
2023-01-22T10:46:40.404Z,100030.94
2023-01-22T10:49:41.950Z,100034.56
2023-01-22T10:52:54.834Z,100034.63
2023-01-22T10:55:58.741Z,100040.06
2023-01-22T10:59:16.049Z,100037.97
2023-01-22T11:02:26.438Z,100038.94
2023-01-22T11:05:33.887Z,100038.94
2023-01-22T11:09:05.328Z,100034.75
2023-01-22T11:12:17.854Z,100043.38
2023-01-22T11:15:31.116Z,100039.09
2023-01-22T11:18:38.044Z,100032.09
2023-01-22T11:21:45.516Z,100023.16
2023-01-22T11:24:48.557Z,100032.03
2023-01-22T11:28:12.463Z,100035.09
2023-01-22T11:31:16.959Z,100033.25
2023-01-22T11:34:54.035Z,100035.81
2023-01-22T11:38:10.875Z,100035.00
2023-01-22T11:41:26.182Z,100034.28
2023-01-22T11:44:34.745Z,100037.34
2023-01-22T11:48:01.205Z,100028.00
2023-01-22T11:51:21.139Z,100030.47
2023-01-22T11:54:36.689Z,100029.34
2023-01-22T11:58:20.077Z,100028.88
2023-01-22T12:01:38.544Z,100035.97
2023-01-22T12:05:07.910Z,100030.47
2023-01-22T12:08:42.501Z,100027.50
2023-01-22T12:11:53.855Z,100031.38
2023-01-22T12:15:06.225Z,100029.19
2023-01-22T12:18:07.846Z,100032.19
2023-01-22T12:21:21.887Z,100028.66
2023-01-22T12:24:32.224Z,100038.47
2023-01-22T12:27:42.901Z,100029.19
2023-01-22T12:30:47.530Z,100031.72
2023-01-22T12:33:49.181Z,100014.38
2023-01-22T12:36:52.889Z,100025.56
2023-01-22T12:40:05.056Z,100020.72
2023-01-22T12:43:07.549Z,100023.38
2023-01-22T12:46:13.240Z,100023.56
2023-01-22T12:49:18.909Z,100018.56
2023-01-22T12:52:42.575Z,100024.78
2023-01-22T12:55:45.126Z,100039.50
2023-01-22T12:58:56.685Z,100027.75
2023-01-22T13:02:05.978Z,100042.19
2023-01-22T13:05:19.772Z,100039.69
2023-01-22T13:08:26.776Z,100031.78
2023-01-22T13:11:33.528Z,100034.44
2023-01-22T13:14:35.893Z,100031.00
2023-01-22T13:17:40.455Z,100037.38
2023-01-22T13:21:22.988Z,100037.38
2023-01-22T13:24:24.649Z,100025.56
2023-01-22T13:27:33.308Z,100037.38
2023-01-22T13:30:35.320Z,100033.06
2023-01-22T13:33:37.038Z,100032.59
2023-01-22T13:36:44.297Z,100038.78
2023-01-22T13:39:45.921Z,100034.78
2023-01-22T13:42:48.117Z,100042.09
2023-01-22T13:45:55.755Z,100041.84
2023-01-22T13:49:06.866Z,100046.16
2023-01-22T13:52:16.529Z,100044.84
2023-01-22T13:55:21.149Z,100025.34
2023-01-22T13:58:47.179Z,100036.53
2023-01-22T14:01:49.588Z,100045.28
2023-01-22T14:04:51.315Z,100050.50
2023-01-22T14:08:11.034Z,100051.84
2023-01-22T14:11:12.647Z,100058.81
2023-01-22T14:14:16.989Z,100059.34
2023-01-22T14:17:30.399Z,100054.44
2023-01-22T14:20:32.029Z,100059.84
2023-01-22T14:23:34.699Z,100059.53
2023-01-22T14:26:36.554Z,100055.41
2023-01-22T14:29:38.134Z,100065.56
2023-01-22T14:32:39.977Z,100074.25
2023-01-22T14:35:41.602Z,100074.50
2023-01-22T14:38:43.142Z,100078.22
2023-01-22T14:41:44.721Z,100095.53
2023-01-22T14:44:46.265Z,100087.22
2023-01-22T14:47:52.693Z,100086.97
2023-01-22T14:50:54.316Z,100083.91
2023-01-22T14:53:57.773Z,100100.28
2023-01-22T14:57:02.912Z,100092.78
2023-01-22T15:00:05.947Z,100091.75
2023-01-22T15:03:07.563Z,100101.56
2023-01-22T15:06:09.216Z,100091.50
2023-01-22T15:09:11.331Z,100099.16
2023-01-22T15:12:13.021Z,100093.53
2023-01-22T15:15:23.023Z,100095.59
2023-01-22T15:18:24.583Z,100104.94
2023-01-22T15:21:26.167Z,100088.09
2023-01-22T15:24:27.746Z,100109.22
2023-01-22T15:27:29.358Z,100097.44
2023-01-22T15:30:31.126Z,100106.00
2023-01-22T15:33:32.723Z,100107.28
2023-01-22T15:36:36.594Z,100107.53
2023-01-22T15:39:38.119Z,100108.78
2023-01-22T15:42:39.665Z,100105.19
2023-01-22T15:45:41.436Z,100105.66
2023-01-22T15:48:43.184Z,100108.25
2023-01-22T15:51:44.791Z,100117.34
2023-01-22T15:54:46.377Z,100124.75
2023-01-22T15:57:47.951Z,100122.09
2023-01-22T16:00:49.520Z,100107.22
2023-01-22T16:03:51.320Z,100122.25
2023-01-22T16:06:53.018Z,100129.41
2023-01-22T16:09:54.593Z,100130.44
2023-01-22T16:12:56.277Z,100130.09
2023-01-22T16:15:58.579Z,100129.56
2023-01-22T16:19:02.132Z,100138.31
2023-01-22T16:22:03.735Z,100151.59
2023-01-22T16:25:05.741Z,100146.53
2023-01-22T16:28:07.314Z,100133.03
2023-01-22T16:31:12.604Z,100161.69
2023-01-22T16:34:17.090Z,100153.13
2023-01-22T16:37:18.669Z,100154.53
2023-01-22T16:40:23.467Z,100154.53
2023-01-22T16:43:25.004Z,100164.00
2023-01-22T16:46:29.388Z,100154.53
2023-01-22T16:49:33.189Z,100163.09
2023-01-22T16:52:35.051Z,100166.81
2023-01-22T16:55:36.651Z,100153.41
2023-01-22T16:58:38.351Z,100158.16
2023-01-22T17:01:41.492Z,100162.97
2023-01-22T17:04:43.468Z,100176.38
2023-01-22T17:07:45.026Z,100177.19
2023-01-22T17:10:46.619Z,100178.00
2023-01-22T17:13:48.771Z,100184.34
2023-01-22T17:16:50.920Z,100191.50
2023-01-22T17:19:52.471Z,100182.41
2023-01-22T17:22:55.232Z,100184.72
2023-01-22T17:25:56.968Z,100203.19
2023-01-22T17:28:58.688Z,100193.25
2023-01-22T17:32:03.883Z,100195.22
2023-01-22T17:35:06.011Z,100199.47
2023-01-22T17:38:08.672Z,100203.53
2023-01-22T17:41:16.142Z,100207.22
2023-01-22T17:44:17.762Z,100196.03
2023-01-22T17:47:19.391Z,100199.25
2023-01-22T17:50:20.959Z,100206.44
2023-01-22T17:53:22.544Z,100209.66
2023-01-22T17:56:26.664Z,100211.53
2023-01-22T17:59:28.341Z,100220.44
2023-01-22T18:02:30.004Z,100224.47
2023-01-22T18:05:33.350Z,100222.03
2023-01-22T18:08:44.301Z,100227.34
2023-01-22T18:11:45.973Z,100233.72
2023-01-22T18:14:47.715Z,100234.19
2023-01-22T18:17:49.510Z,100231.28
2023-01-22T18:20:51.063Z,100237.75
2023-01-22T18:23:53.143Z,100252.09
2023-01-22T18:26:54.961Z,100252.88
2023-01-22T18:29:56.573Z,100245.03
2023-01-22T18:32:58.191Z,100252.66
2023-01-22T18:36:00.136Z,100254.06
2023-01-22T18:39:05.444Z,100251.41
2023-01-22T18:42:07.034Z,100234.28
2023-01-22T18:45:09.087Z,100241.00
2023-01-22T18:48:12.897Z,100228.63
2023-01-22T18:51:14.523Z,100251.94
2023-01-22T18:54:17.154Z,100260.16
2023-01-22T18:57:18.887Z,100251.16
2023-01-22T19:00:20.719Z,100253.00
2023-01-22T19:03:27.037Z,100248.59
2023-01-22T19:06:31.424Z,100263.63
2023-01-22T19:09:33.418Z,100265.16
2023-01-22T19:12:35.075Z,100258.41
2023-01-22T19:15:36.693Z,100269.31
2023-01-22T19:18:40.052Z,100252.66
2023-01-22T19:21:46.862Z,100257.63
2023-01-22T19:24:51.667Z,100261.34
2023-01-22T19:27:55.582Z,100253.47
2023-01-22T19:30:57.303Z,100255.88
2023-01-22T19:34:00.123Z,100257.03
2023-01-22T19:37:02.422Z,100261.56
2023-01-22T19:40:04.624Z,100260.06
2023-01-22T19:43:06.618Z,100268.34
2023-01-22T19:46:14.001Z,100270.56
2023-01-22T19:49:15.772Z,100273.13
2023-01-22T19:52:18.401Z,100283.28
2023-01-22T19:55:21.159Z,100275.88
2023-01-22T19:58:22.937Z,100276.69
2023-01-22T20:01:24.842Z,100288.59
2023-01-22T20:04:29.769Z,100287.56
2023-01-22T20:07:33.683Z,100274.97
2023-01-22T20:10:37.441Z,100269.78
2023-01-22T20:13:41.708Z,100284.78
2023-01-22T20:16:45.410Z,100282.72
2023-01-22T20:19:47.501Z,100287.66
2023-01-22T20:22:52.173Z,100285.59
2023-01-22T20:25:54.545Z,100293.22
2023-01-22T20:28:56.089Z,100282.72
2023-01-22T20:31:59.281Z,100281.44
2023-01-22T20:35:00.962Z,100290.00
2023-01-22T20:38:02.575Z,100290.09
2023-01-22T20:41:09.177Z,100295.63
2023-01-22T20:44:12.090Z,100299.69
2023-01-22T20:47:13.676Z,100302.47
2023-01-22T20:50:15.277Z,100291.38
2023-01-22T20:53:18.467Z,100304.78
2023-01-22T20:56:23.906Z,100308.38
2023-01-22T20:59:28.419Z,100300.16
2023-01-22T21:02:30.037Z,100303.59
2023-01-22T21:05:31.574Z,100298.78
2023-01-22T21:08:34.038Z,100302.22
2023-01-22T21:11:37.537Z,100301.06
2023-01-22T21:14:40.041Z,100310.56
2023-01-22T21:17:41.657Z,100320.59
2023-01-22T21:20:45.682Z,100315.19
2023-01-22T21:23:49.050Z,100313.91
2023-01-22T21:26:50.873Z,100313.44
2023-01-22T21:29:52.573Z,100307.53
2023-01-22T21:32:54.296Z,100304.31
2023-01-22T21:35:55.939Z,100312.84
2023-01-22T21:38:57.492Z,100306.41
2023-01-22T21:42:17.380Z,100313.91
2023-01-22T21:45:37.718Z,100302.91
2023-01-22T21:48:39.322Z,100297.84
2023-01-22T21:51:40.881Z,100312.63
2023-01-22T21:54:42.451Z,100309.41
2023-01-22T21:57:44.258Z,100309.16
2023-01-22T22:00:45.853Z,100307.69
2023-01-22T22:03:48.001Z,100299.69
2023-01-22T22:06:49.620Z,100316.22
2023-01-22T22:09:51.211Z,100319.09
2023-01-22T22:12:53.695Z,100319.00
2023-01-22T22:15:55.489Z,100320.03
2023-01-22T22:18:57.148Z,100314.59
2023-01-22T22:21:58.742Z,100316.19
2023-01-22T22:25:00.291Z,100305.09
2023-01-22T22:28:01.894Z,100312.97
2023-01-22T22:31:12.314Z,100315.63
2023-01-22T22:34:14.064Z,100312.03
2023-01-22T22:37:16.708Z,100316.31
2023-01-22T22:40:19.393Z,100317.59
2023-01-22T22:43:21.244Z,100318.97
2023-01-22T22:46:26.532Z,100308.44
2023-01-22T22:49:28.318Z,100311.69
2023-01-22T22:52:31.144Z,100304.41
2023-01-22T22:55:32.685Z,100305.91
2023-01-22T22:58:34.322Z,100289.59
2023-01-22T23:01:37.755Z,100307.19
2023-01-22T23:04:39.444Z,100295.06
2023-01-22T23:07:41.006Z,100300.94
2023-01-22T23:10:42.564Z,100298.28
2023-01-22T23:13:46.859Z,100303.72
2023-01-22T23:16:49.086Z,100308.81
2023-01-22T23:19:50.767Z,100307.19
2023-01-22T23:22:58.975Z,100293.19
2023-01-22T23:26:00.982Z,100303.81
2023-01-22T23:29:07.401Z,100303.81
2023-01-22T23:32:09.219Z,100301.41
2023-01-22T23:35:11.766Z,100309.72
2023-01-22T23:38:13.356Z,100294.25
2023-01-22T23:41:16.952Z,100303.72
2023-01-22T23:44:18.820Z,100302.59
2023-01-22T23:47:20.964Z,100292.28
2023-01-22T23:50:22.530Z,100289.63
2023-01-22T23:53:24.095Z,100305.56
2023-01-22T23:56:31.831Z,100300.94
2023-01-22T23:59:34.720Z,100302.69
